sensor_id;sensor_type;location;lat;lon;timestamp;temperature;humidity
35491;DHT22;21605;52.068;20.806;2022-09-09T00:04:29;14.30;78.70
35491;DHT22;21605;52.068;20.806;2022-09-09T00:09:40;14.20;80.40
35491;DHT22;21605;52.068;20.806;2022-09-09T00:12:25;14.20;83.10
35491;DHT22;21605;52.068;20.806;2022-09-09T00:17:38;14.20;85.00
35491;DHT22;21605;52.068;20.806;2022-09-09T00:20:44;14.10;83.20
35491;DHT22;21605;52.068;20.806;2022-09-09T00:29:00;14.10;81.90
35491;DHT22;21605;52.068;20.806;2022-09-09T00:31:30;14.10;84.10
35491;DHT22;21605;52.068;20.806;2022-09-09T00:34:03;14.10;83.10
35491;DHT22;21605;52.068;20.806;2022-09-09T00:36:31;14.00;83.20
35491;DHT22;21605;52.068;20.806;2022-09-09T00:39:00;14.00;83.70
35491;DHT22;21605;52.068;20.806;2022-09-09T00:44:38;14.00;81.70
35491;DHT22;21605;52.068;20.806;2022-09-09T00:52:47;13.90;86.50
35491;DHT22;21605;52.068;20.806;2022-09-09T00:55:20;13.90;85.20
35491;DHT22;21605;52.068;20.806;2022-09-09T00:57:49;13.90;84.60
35491;DHT22;21605;52.068;20.806;2022-09-09T01:10:59;13.90;84.80
35491;DHT22;21605;52.068;20.806;2022-09-09T01:13:30;13.80;87.10
35491;DHT22;21605;52.068;20.806;2022-09-09T01:15:58;13.80;85.50
35491;DHT22;21605;52.068;20.806;2022-09-09T01:18:37;13.90;86.00
35491;DHT22;21605;52.068;20.806;2022-09-09T01:21:41;13.80;88.10
35491;DHT22;21605;52.068;20.806;2022-09-09T01:26:44;13.80;85.60
35491;DHT22;21605;52.068;20.806;2022-09-09T01:29:15;13.80;86.60
35491;DHT22;21605;52.068;20.806;2022-09-09T01:31:53;13.80;87.40
35491;DHT22;21605;52.068;20.806;2022-09-09T01:34:19;13.80;89.00
35491;DHT22;21605;52.068;20.806;2022-09-09T01:39:26;13.80;89.40
35491;DHT22;21605;52.068;20.806;2022-09-09T01:41:53;13.80;85.40
35491;DHT22;21605;52.068;20.806;2022-09-09T01:44:19;13.80;85.40
35491;DHT22;21605;52.068;20.806;2022-09-09T01:46:46;13.80;86.00
35491;DHT22;21605;52.068;20.806;2022-09-09T01:49:11;13.80;83.10
35491;DHT22;21605;52.068;20.806;2022-09-09T01:51:39;13.80;85.40
35491;DHT22;21605;52.068;20.806;2022-09-09T01:54:07;13.80;86.80
35491;DHT22;21605;52.068;20.806;2022-09-09T02:02:09;13.80;88.10
35491;DHT22;21605;52.068;20.806;2022-09-09T02:07:19;13.80;88.70
35491;DHT22;21605;52.068;20.806;2022-09-09T02:09:55;13.80;88.30
35491;DHT22;21605;52.068;20.806;2022-09-09T02:12:24;13.80;84.00
35491;DHT22;21605;52.068;20.806;2022-09-09T02:14:56;13.80;86.20
35491;DHT22;21605;52.068;20.806;2022-09-09T02:17:28;13.70;89.40
35491;DHT22;21605;52.068;20.806;2022-09-09T02:20:02;13.80;87.60
35491;DHT22;21605;52.068;20.806;2022-09-09T02:22:30;13.80;87.50
35491;DHT22;21605;52.068;20.806;2022-09-09T02:24:57;13.80;88.10
35491;DHT22;21605;52.068;20.806;2022-09-09T02:27:25;13.80;87.90
35491;DHT22;21605;52.068;20.806;2022-09-09T02:29:52;13.70;89.40
35491;DHT22;21605;52.068;20.806;2022-09-09T02:32:22;13.70;89.00
35491;DHT22;21605;52.068;20.806;2022-09-09T02:34:53;13.70;89.30
35491;DHT22;21605;52.068;20.806;2022-09-09T02:37:23;13.70;88.20
35491;DHT22;21605;52.068;20.806;2022-09-09T02:39:54;13.70;89.20
35491;DHT22;21605;52.068;20.806;2022-09-09T02:42:19;13.80;87.10
35491;DHT22;21605;52.068;20.806;2022-09-09T02:44:45;13.80;88.40
35491;DHT22;21605;52.068;20.806;2022-09-09T02:47:16;13.80;86.40
35491;DHT22;21605;52.068;20.806;2022-09-09T02:52:14;13.70;86.90
35491;DHT22;21605;52.068;20.806;2022-09-09T02:54:42;13.70;89.00
35491;DHT22;21605;52.068;20.806;2022-09-09T02:57:15;13.70;88.70
35491;DHT22;21605;52.068;20.806;2022-09-09T02:59:43;13.80;89.10
35491;DHT22;21605;52.068;20.806;2022-09-09T03:02:09;13.80;88.90
35491;DHT22;21605;52.068;20.806;2022-09-09T03:04:37;13.80;88.00
35491;DHT22;21605;52.068;20.806;2022-09-09T03:07:03;13.80;88.40
35491;DHT22;21605;52.068;20.806;2022-09-09T03:09:29;13.80;90.30
35491;DHT22;21605;52.068;20.806;2022-09-09T03:11:55;13.80;87.20
35491;DHT22;21605;52.068;20.806;2022-09-09T03:14:21;13.80;87.90
35491;DHT22;21605;52.068;20.806;2022-09-09T03:16:50;13.80;90.20
35491;DHT22;21605;52.068;20.806;2022-09-09T03:19:16;13.80;89.80
35491;DHT22;21605;52.068;20.806;2022-09-09T03:21:41;13.80;89.80
35491;DHT22;21605;52.068;20.806;2022-09-09T03:24:07;13.80;90.30
35491;DHT22;21605;52.068;20.806;2022-09-09T03:26:33;13.80;89.60
35491;DHT22;21605;52.068;20.806;2022-09-09T03:28:58;13.80;88.70
35491;DHT22;21605;52.068;20.806;2022-09-09T03:31:26;13.80;89.60
35491;DHT22;21605;52.068;20.806;2022-09-09T03:33:56;13.80;90.00
35491;DHT22;21605;52.068;20.806;2022-09-09T03:36:23;13.80;90.30
35491;DHT22;21605;52.068;20.806;2022-09-09T03:38:49;13.80;90.50
35491;DHT22;21605;52.068;20.806;2022-09-09T03:41:16;13.80;88.30
35491;DHT22;21605;52.068;20.806;2022-09-09T03:43:41;13.80;89.60
35491;DHT22;21605;52.068;20.806;2022-09-09T03:46:07;13.80;90.20
35491;DHT22;21605;52.068;20.806;2022-09-09T03:48:33;13.80;87.90
35491;DHT22;21605;52.068;20.806;2022-09-09T03:50:58;13.80;88.40
35491;DHT22;21605;52.068;20.806;2022-09-09T03:53:26;13.80;90.10
35491;DHT22;21605;52.068;20.806;2022-09-09T03:55:53;13.80;88.80
35491;DHT22;21605;52.068;20.806;2022-09-09T03:58:25;13.80;88.30
35491;DHT22;21605;52.068;20.806;2022-09-09T04:01:07;13.80;89.60
35491;DHT22;21605;52.068;20.806;2022-09-09T04:03:36;13.80;88.10
35491;DHT22;21605;52.068;20.806;2022-09-09T04:06:03;13.80;90.00
35491;DHT22;21605;52.068;20.806;2022-09-09T04:08:30;13.80;89.40
35491;DHT22;21605;52.068;20.806;2022-09-09T04:10:59;13.80;90.50
35491;DHT22;21605;52.068;20.806;2022-09-09T04:13:27;13.80;90.00
35491;DHT22;21605;52.068;20.806;2022-09-09T04:15:55;13.80;90.50
35491;DHT22;21605;52.068;20.806;2022-09-09T04:18:21;13.80;89.50
35491;DHT22;21605;52.068;20.806;2022-09-09T04:20:48;13.80;90.60
35491;DHT22;21605;52.068;20.806;2022-09-09T04:23:14;13.80;89.40
35491;DHT22;21605;52.068;20.806;2022-09-09T04:25:48;13.80;89.90
35491;DHT22;21605;52.068;20.806;2022-09-09T04:28:14;13.80;90.00
35491;DHT22;21605;52.068;20.806;2022-09-09T04:30:41;13.90;90.70
35491;DHT22;21605;52.068;20.806;2022-09-09T04:33:07;13.90;90.60
35491;DHT22;21605;52.068;20.806;2022-09-09T04:35:33;13.90;90.60
35491;DHT22;21605;52.068;20.806;2022-09-09T04:37:59;13.90;90.40
35491;DHT22;21605;52.068;20.806;2022-09-09T04:40:25;13.90;90.40
35491;DHT22;21605;52.068;20.806;2022-09-09T04:42:51;13.90;90.70
35491;DHT22;21605;52.068;20.806;2022-09-09T04:45:17;13.90;90.90
35491;DHT22;21605;52.068;20.806;2022-09-09T04:47:43;13.90;90.80
35491;DHT22;21605;52.068;20.806;2022-09-09T04:50:09;13.90;90.90
35491;DHT22;21605;52.068;20.806;2022-09-09T04:52:35;13.90;91.00
35491;DHT22;21605;52.068;20.806;2022-09-09T04:55:01;13.90;90.70
35491;DHT22;21605;52.068;20.806;2022-09-09T04:57:27;13.90;91.10
35491;DHT22;21605;52.068;20.806;2022-09-09T04:59:54;13.90;90.70
35491;DHT22;21605;52.068;20.806;2022-09-09T05:02:19;13.90;90.00
35491;DHT22;21605;52.068;20.806;2022-09-09T05:04:45;13.90;90.60
35491;DHT22;21605;52.068;20.806;2022-09-09T05:07:10;13.90;90.80
35491;DHT22;21605;52.068;20.806;2022-09-09T05:09:36;13.90;91.00
35491;DHT22;21605;52.068;20.806;2022-09-09T05:12:02;13.90;91.30
35491;DHT22;21605;52.068;20.806;2022-09-09T05:14:28;13.90;90.90
35491;DHT22;21605;52.068;20.806;2022-09-09T05:16:55;13.90;91.00
35491;DHT22;21605;52.068;20.806;2022-09-09T05:19:21;14.00;90.50
35491;DHT22;21605;52.068;20.806;2022-09-09T05:21:47;13.90;90.10
35491;DHT22;21605;52.068;20.806;2022-09-09T05:24:12;14.00;91.00
35491;DHT22;21605;52.068;20.806;2022-09-09T05:26:38;14.00;90.80
35491;DHT22;21605;52.068;20.806;2022-09-09T05:29:04;14.00;91.20
35491;DHT22;21605;52.068;20.806;2022-09-09T05:31:31;14.00;91.10
35491;DHT22;21605;52.068;20.806;2022-09-09T05:33:56;14.00;90.60
35491;DHT22;21605;52.068;20.806;2022-09-09T05:36:22;14.00;90.80
35491;DHT22;21605;52.068;20.806;2022-09-09T05:38:48;14.00;90.10
35491;DHT22;21605;52.068;20.806;2022-09-09T05:41:15;14.00;90.00
35491;DHT22;21605;52.068;20.806;2022-09-09T05:43:41;14.10;90.30
35491;DHT22;21605;52.068;20.806;2022-09-09T05:46:11;14.10;90.30
35491;DHT22;21605;52.068;20.806;2022-09-09T05:48:42;14.10;91.40
35491;DHT22;21605;52.068;20.806;2022-09-09T05:51:11;14.10;89.90
35491;DHT22;21605;52.068;20.806;2022-09-09T05:53:38;14.10;90.50
35491;DHT22;21605;52.068;20.806;2022-09-09T05:56:05;14.10;90.00
35491;DHT22;21605;52.068;20.806;2022-09-09T05:58:34;14.10;90.90
35491;DHT22;21605;52.068;20.806;2022-09-09T06:01:08;14.10;90.30
35491;DHT22;21605;52.068;20.806;2022-09-09T06:03:34;14.10;91.10
35491;DHT22;21605;52.068;20.806;2022-09-09T06:06:02;13.50;90.50
35491;DHT22;21605;52.068;20.806;2022-09-09T06:08:31;14.10;90.90
35491;DHT22;21605;52.068;20.806;2022-09-09T06:11:09;14.10;90.60
35491;DHT22;21605;52.068;20.806;2022-09-09T06:13:35;14.10;91.50
35491;DHT22;21605;52.068;20.806;2022-09-09T06:16:04;14.20;91.10
35491;DHT22;21605;52.068;20.806;2022-09-09T06:18:30;14.20;91.70
35491;DHT22;21605;52.068;20.806;2022-09-09T06:21:01;14.20;92.50
35491;DHT22;21605;52.068;20.806;2022-09-09T06:23:28;14.20;91.90
35491;DHT22;21605;52.068;20.806;2022-09-09T06:28:32;14.20;92.50
35491;DHT22;21605;52.068;20.806;2022-09-09T06:30:59;14.20;92.10
35491;DHT22;21605;52.068;20.806;2022-09-09T06:33:26;14.20;92.80
35491;DHT22;21605;52.068;20.806;2022-09-09T06:35:52;14.20;92.70
35491;DHT22;21605;52.068;20.806;2022-09-09T06:38:18;14.20;92.10
35491;DHT22;21605;52.068;20.806;2022-09-09T06:40:59;14.20;92.00
35491;DHT22;21605;52.068;20.806;2022-09-09T06:43:25;14.20;92.50
35491;DHT22;21605;52.068;20.806;2022-09-09T06:46:03;14.20;92.10
35491;DHT22;21605;52.068;20.806;2022-09-09T06:48:29;14.20;92.60
35491;DHT22;21605;52.068;20.806;2022-09-09T06:51:01;14.20;92.10
35491;DHT22;21605;52.068;20.806;2022-09-09T06:53:27;14.20;92.10
35491;DHT22;21605;52.068;20.806;2022-09-09T06:55:58;14.30;92.30
35491;DHT22;21605;52.068;20.806;2022-09-09T06:58:24;14.30;91.40
35491;DHT22;21605;52.068;20.806;2022-09-09T07:01:11;14.30;92.30
35491;DHT22;21605;52.068;20.806;2022-09-09T07:03:41;14.30;92.70
35491;DHT22;21605;52.068;20.806;2022-09-09T07:06:09;14.30;92.80
35491;DHT22;21605;52.068;20.806;2022-09-09T07:08:39;14.30;92.30
35491;DHT22;21605;52.068;20.806;2022-09-09T07:11:06;14.30;93.00
35491;DHT22;21605;52.068;20.806;2022-09-09T07:13:32;14.30;92.30
35491;DHT22;21605;52.068;20.806;2022-09-09T07:16:09;14.30;92.10
35491;DHT22;21605;52.068;20.806;2022-09-09T07:18:35;14.40;93.00
35491;DHT22;21605;52.068;20.806;2022-09-09T07:21:02;14.40;92.40
35491;DHT22;21605;52.068;20.806;2022-09-09T07:23:29;14.40;92.00
35491;DHT22;21605;52.068;20.806;2022-09-09T07:26:01;14.40;92.90
35491;DHT22;21605;52.068;20.806;2022-09-09T07:28:27;14.50;92.70
35491;DHT22;21605;52.068;20.806;2022-09-09T07:31:01;14.50;93.40
35491;DHT22;21605;52.068;20.806;2022-09-09T07:33:31;14.60;93.50
35491;DHT22;21605;52.068;20.806;2022-09-09T07:36:08;14.60;93.80
35491;DHT22;21605;52.068;20.806;2022-09-09T07:38:45;14.70;94.10
35491;DHT22;21605;52.068;20.806;2022-09-09T07:41:17;14.70;93.70
35491;DHT22;21605;52.068;20.806;2022-09-09T07:43:45;14.70;93.80
35491;DHT22;21605;52.068;20.806;2022-09-09T07:46:12;14.80;93.80
35491;DHT22;21605;52.068;20.806;2022-09-09T07:48:43;14.80;94.00
35491;DHT22;21605;52.068;20.806;2022-09-09T07:51:14;14.80;94.10
35491;DHT22;21605;52.068;20.806;2022-09-09T07:53:58;14.80;93.90
35491;DHT22;21605;52.068;20.806;2022-09-09T07:56:26;14.90;94.00
35491;DHT22;21605;52.068;20.806;2022-09-09T07:58:58;14.90;94.30
35491;DHT22;21605;52.068;20.806;2022-09-09T08:01:33;14.90;94.10
35491;DHT22;21605;52.068;20.806;2022-09-09T08:04:08;14.70;92.90
35491;DHT22;21605;52.068;20.806;2022-09-09T08:06:59;14.90;93.60
35491;DHT22;21605;52.068;20.806;2022-09-09T08:09:26;15.00;93.30
35491;DHT22;21605;52.068;20.806;2022-09-09T08:11:57;15.00;94.20
35491;DHT22;21605;52.068;20.806;2022-09-09T08:14:23;15.00;93.70
35491;DHT22;21605;52.068;20.806;2022-09-09T08:16:58;15.00;94.20
35491;DHT22;21605;52.068;20.806;2022-09-09T08:19:25;15.00;93.20
35491;DHT22;21605;52.068;20.806;2022-09-09T08:21:59;15.10;93.80
35491;DHT22;21605;52.068;20.806;2022-09-09T08:24:27;15.10;93.60
35491;DHT22;21605;52.068;20.806;2022-09-09T08:26:54;15.10;94.20
35491;DHT22;21605;52.068;20.806;2022-09-09T08:29:21;15.10;93.90
35491;DHT22;21605;52.068;20.806;2022-09-09T08:31:52;15.20;94.50
35491;DHT22;21605;52.068;20.806;2022-09-09T08:34:34;15.20;94.40
35491;DHT22;21605;52.068;20.806;2022-09-09T08:36:59;15.30;94.70
35491;DHT22;21605;52.068;20.806;2022-09-09T08:39:25;15.30;93.80
35491;DHT22;21605;52.068;20.806;2022-09-09T08:50:22;15.40;95.20
35491;DHT22;21605;52.068;20.806;2022-09-09T08:53:09;15.40;95.20
35491;DHT22;21605;52.068;20.806;2022-09-09T08:56:02;15.40;95.30
35491;DHT22;21605;52.068;20.806;2022-09-09T08:58:31;15.50;95.00
35491;DHT22;21605;52.068;20.806;2022-09-09T09:06:26;15.60;94.50
35491;DHT22;21605;52.068;20.806;2022-09-09T09:11:53;15.70;95.60
35491;DHT22;21605;52.068;20.806;2022-09-09T09:14:21;15.70;95.40
35491;DHT22;21605;52.068;20.806;2022-09-09T09:16:58;15.70;95.60
35491;DHT22;21605;52.068;20.806;2022-09-09T09:19:26;15.70;94.10
35491;DHT22;21605;52.068;20.806;2022-09-09T09:24:41;15.70;95.00
35491;DHT22;21605;52.068;20.806;2022-09-09T09:27:17;15.80;95.20
35491;DHT22;21605;52.068;20.806;2022-09-09T09:29:44;15.80;94.80
35491;DHT22;21605;52.068;20.806;2022-09-09T09:32:14;15.80;94.50
35491;DHT22;21605;52.068;20.806;2022-09-09T09:34:41;15.80;94.60
35491;DHT22;21605;52.068;20.806;2022-09-09T09:37:16;15.80;94.60
35491;DHT22;21605;52.068;20.806;2022-09-09T09:39:44;15.90;95.00
35491;DHT22;21605;52.068;20.806;2022-09-09T09:42:12;15.90;93.70
35491;DHT22;21605;52.068;20.806;2022-09-09T09:44:41;16.00;93.90
35491;DHT22;21605;52.068;20.806;2022-09-09T09:47:20;16.00;95.30
35491;DHT22;21605;52.068;20.806;2022-09-09T09:50:02;16.10;94.80
35491;DHT22;21605;52.068;20.806;2022-09-09T09:52:29;16.10;95.40
35491;DHT22;21605;52.068;20.806;2022-09-09T09:55:03;16.10;94.70
35491;DHT22;21605;52.068;20.806;2022-09-09T09:57:31;16.10;94.70
35491;DHT22;21605;52.068;20.806;2022-09-09T10:00:04;16.10;95.60
35491;DHT22;21605;52.068;20.806;2022-09-09T10:02:40;16.20;95.30
35491;DHT22;21605;52.068;20.806;2022-09-09T10:05:21;16.20;95.60
35491;DHT22;21605;52.068;20.806;2022-09-09T10:08:11;16.20;94.70
35491;DHT22;21605;52.068;20.806;2022-09-09T10:16:25;16.30;95.20
35491;DHT22;21605;52.068;20.806;2022-09-09T10:32:41;16.50;95.10
35491;DHT22;21605;52.068;20.806;2022-09-09T10:38:16;16.60;95.90
35491;DHT22;21605;52.068;20.806;2022-09-09T10:57:50;16.50;94.70
35491;DHT22;21605;52.068;20.806;2022-09-09T11:00:21;16.60;95.30
35491;DHT22;21605;52.068;20.806;2022-09-09T11:03:09;16.60;94.70
35491;DHT22;21605;52.068;20.806;2022-09-09T11:08:35;16.60;94.30
35491;DHT22;21605;52.068;20.806;2022-09-09T11:11:27;16.60;94.40
35491;DHT22;21605;52.068;20.806;2022-09-09T11:17:12;16.70;94.60
35491;DHT22;21605;52.068;20.806;2022-09-09T11:19:42;16.70;94.90
35491;DHT22;21605;52.068;20.806;2022-09-09T11:25:26;16.70;95.10
35491;DHT22;21605;52.068;20.806;2022-09-09T11:36:20;16.80;95.50
35491;DHT22;21605;52.068;20.806;2022-09-09T11:38:51;16.80;96.00
35491;DHT22;21605;52.068;20.806;2022-09-09T11:41:19;16.80;95.70
35491;DHT22;21605;52.068;20.806;2022-09-09T11:43:51;16.80;95.80
35491;DHT22;21605;52.068;20.806;2022-09-09T11:46:20;16.80;95.70
35491;DHT22;21605;52.068;20.806;2022-09-09T11:49:21;16.80;95.70
35491;DHT22;21605;52.068;20.806;2022-09-09T11:51:50;16.90;96.20
35491;DHT22;21605;52.068;20.806;2022-09-09T11:54:30;16.90;96.10
35491;DHT22;21605;52.068;20.806;2022-09-09T11:56:57;16.90;95.60
35491;DHT22;21605;52.068;20.806;2022-09-09T11:59:31;16.90;95.30
35491;DHT22;21605;52.068;20.806;2022-09-09T12:02:27;16.90;95.40
35491;DHT22;21605;52.068;20.806;2022-09-09T12:05:10;16.90;95.70
35491;DHT22;21605;52.068;20.806;2022-09-09T12:07:38;16.90;94.90
35491;DHT22;21605;52.068;20.806;2022-09-09T12:12:52;17.60;95.20
35491;DHT22;21605;52.068;20.806;2022-09-09T12:15:26;16.80;94.80
35491;DHT22;21605;52.068;20.806;2022-09-09T12:17:56;16.90;95.90
35491;DHT22;21605;52.068;20.806;2022-09-09T12:29:33;16.90;95.30
35491;DHT22;21605;52.068;20.806;2022-09-09T12:32:17;16.90;96.10
35491;DHT22;21605;52.068;20.806;2022-09-09T12:34:59;16.90;95.00
35491;DHT22;21605;52.068;20.806;2022-09-09T12:37:46;16.90;96.50
35491;DHT22;21605;52.068;20.806;2022-09-09T12:42:48;17.00;95.80
35491;DHT22;21605;52.068;20.806;2022-09-09T12:45:17;17.10;95.80
35491;DHT22;21605;52.068;20.806;2022-09-09T12:47:56;17.10;95.60
35491;DHT22;21605;52.068;20.806;2022-09-09T12:50:24;17.10;96.50
35491;DHT22;21605;52.068;20.806;2022-09-09T12:52:56;17.20;96.30
35491;DHT22;21605;52.068;20.806;2022-09-09T12:55:32;17.30;96.40
35491;DHT22;21605;52.068;20.806;2022-09-09T12:58:01;17.30;96.40
35491;DHT22;21605;52.068;20.806;2022-09-09T13:00:49;17.30;96.30
35491;DHT22;21605;52.068;20.806;2022-09-09T13:03:20;17.30;96.30
35491;DHT22;21605;52.068;20.806;2022-09-09T13:05:49;17.40;96.80
35491;DHT22;21605;52.068;20.806;2022-09-09T13:08:16;17.40;96.10
35491;DHT22;21605;52.068;20.806;2022-09-09T13:10:51;17.40;97.20
35491;DHT22;21605;52.068;20.806;2022-09-09T13:16:01;17.30;96.00
35491;DHT22;21605;52.068;20.806;2022-09-09T13:18:30;17.40;96.60
35491;DHT22;21605;52.068;20.806;2022-09-09T13:20:57;17.40;95.40
35491;DHT22;21605;52.068;20.806;2022-09-09T13:23:27;17.40;95.90
35491;DHT22;21605;52.068;20.806;2022-09-09T13:26:01;17.40;95.90
35491;DHT22;21605;52.068;20.806;2022-09-09T13:28:41;17.50;96.00
35491;DHT22;21605;52.068;20.806;2022-09-09T13:33:45;17.40;95.90
35491;DHT22;21605;52.068;20.806;2022-09-09T13:36:12;17.40;95.90
35491;DHT22;21605;52.068;20.806;2022-09-09T13:38:55;17.40;96.30
35491;DHT22;21605;52.068;20.806;2022-09-09T13:41:33;17.40;96.50
35491;DHT22;21605;52.068;20.806;2022-09-09T13:44:00;17.40;95.30
35491;DHT22;21605;52.068;20.806;2022-09-09T13:46:34;17.40;95.90
35491;DHT22;21605;52.068;20.806;2022-09-09T13:49:22;17.40;96.30
35491;DHT22;21605;52.068;20.806;2022-09-09T13:52:02;17.40;96.00
35491;DHT22;21605;52.068;20.806;2022-09-09T13:54:27;17.40;96.30
35491;DHT22;21605;52.068;20.806;2022-09-09T13:56:53;17.40;95.90
35491;DHT22;21605;52.068;20.806;2022-09-09T13:59:20;17.40;96.40
35491;DHT22;21605;52.068;20.806;2022-09-09T14:01:45;17.40;96.20
35491;DHT22;21605;52.068;20.806;2022-09-09T14:04:14;17.40;96.30
35491;DHT22;21605;52.068;20.806;2022-09-09T14:06:41;17.40;96.60
35491;DHT22;21605;52.068;20.806;2022-09-09T14:09:17;17.40;97.00
35491;DHT22;21605;52.068;20.806;2022-09-09T14:11:44;17.40;98.40
35491;DHT22;21605;52.068;20.806;2022-09-09T14:14:16;17.40;97.70
35491;DHT22;21605;52.068;20.806;2022-09-09T14:16:41;17.40;97.70
35491;DHT22;21605;52.068;20.806;2022-09-09T14:19:16;17.50;98.40
35491;DHT22;21605;52.068;20.806;2022-09-09T14:21:41;17.50;97.60
35491;DHT22;21605;52.068;20.806;2022-09-09T14:24:17;17.50;97.40
35491;DHT22;21605;52.068;20.806;2022-09-09T14:26:42;17.40;96.90
35491;DHT22;21605;52.068;20.806;2022-09-09T14:29:17;17.50;96.60
35491;DHT22;21605;52.068;20.806;2022-09-09T14:31:43;17.50;97.70
35491;DHT22;21605;52.068;20.806;2022-09-09T14:34:17;17.50;97.40
35491;DHT22;21605;52.068;20.806;2022-09-09T14:36:43;17.50;97.00
35491;DHT22;21605;52.068;20.806;2022-09-09T14:39:13;17.60;97.30
35491;DHT22;21605;52.068;20.806;2022-09-09T14:41:39;17.60;97.40
35491;DHT22;21605;52.068;20.806;2022-09-09T14:44:04;17.60;97.50
35491;DHT22;21605;52.068;20.806;2022-09-09T14:46:30;17.70;97.50
35491;DHT22;21605;52.068;20.806;2022-09-09T14:48:57;17.70;95.90
35491;DHT22;21605;52.068;20.806;2022-09-09T14:51:25;17.60;97.00
35491;DHT22;21605;52.068;20.806;2022-09-09T14:53:54;17.60;96.60
35491;DHT22;21605;52.068;20.806;2022-09-09T14:56:22;17.60;96.70
35491;DHT22;21605;52.068;20.806;2022-09-09T14:58:48;17.60;96.60
35491;DHT22;21605;52.068;20.806;2022-09-09T15:01:19;17.60;96.00
35491;DHT22;21605;52.068;20.806;2022-09-09T15:03:57;17.60;96.40
35491;DHT22;21605;52.068;20.806;2022-09-09T15:06:25;17.50;96.00
35491;DHT22;21605;52.068;20.806;2022-09-09T15:08:52;17.50;96.30
35491;DHT22;21605;52.068;20.806;2022-09-09T15:11:19;17.50;95.70
35491;DHT22;21605;52.068;20.806;2022-09-09T15:13:45;17.50;96.50
35491;DHT22;21605;52.068;20.806;2022-09-09T15:16:21;17.50;96.70
35491;DHT22;21605;52.068;20.806;2022-09-09T15:18:54;17.50;96.70
35491;DHT22;21605;52.068;20.806;2022-09-09T15:21:23;17.50;96.70
35491;DHT22;21605;52.068;20.806;2022-09-09T15:23:50;17.50;97.00
35491;DHT22;21605;52.068;20.806;2022-09-09T15:26:17;17.50;96.90
35491;DHT22;21605;52.068;20.806;2022-09-09T15:28:44;17.50;96.60
35491;DHT22;21605;52.068;20.806;2022-09-09T15:31:20;17.40;96.80
35491;DHT22;21605;52.068;20.806;2022-09-09T15:34:02;17.50;96.80
35491;DHT22;21605;52.068;20.806;2022-09-09T15:39:02;17.40;96.70
35491;DHT22;21605;52.068;20.806;2022-09-09T15:41:28;17.40;96.40
35491;DHT22;21605;52.068;20.806;2022-09-09T15:43:56;17.40;96.70
35491;DHT22;21605;52.068;20.806;2022-09-09T15:46:37;17.40;96.40
35491;DHT22;21605;52.068;20.806;2022-09-09T15:49:10;17.30;96.60
35491;DHT22;21605;52.068;20.806;2022-09-09T15:51:46;17.40;96.10
35491;DHT22;21605;52.068;20.806;2022-09-09T15:54:22;17.30;96.60
35491;DHT22;21605;52.068;20.806;2022-09-09T15:56:58;17.30;96.10
35491;DHT22;21605;52.068;20.806;2022-09-09T15:59:25;17.20;96.50
35491;DHT22;21605;52.068;20.806;2022-09-09T16:01:51;17.20;96.40
35491;DHT22;21605;52.068;20.806;2022-09-09T16:04:21;17.30;96.50
35491;DHT22;21605;52.068;20.806;2022-09-09T16:06:50;17.20;96.40
35491;DHT22;21605;52.068;20.806;2022-09-09T16:09:16;17.20;96.10
35491;DHT22;21605;52.068;20.806;2022-09-09T16:11:42;17.10;96.50
35491;DHT22;21605;52.068;20.806;2022-09-09T16:14:07;17.10;96.50
35491;DHT22;21605;52.068;20.806;2022-09-09T16:16:34;17.10;96.90
35491;DHT22;21605;52.068;20.806;2022-09-09T16:19:03;17.10;96.90
35491;DHT22;21605;52.068;20.806;2022-09-09T16:21:33;17.10;96.50
35491;DHT22;21605;52.068;20.806;2022-09-09T16:24:00;17.00;96.80
35491;DHT22;21605;52.068;20.806;2022-09-09T16:26:27;17.00;96.50
35491;DHT22;21605;52.068;20.806;2022-09-09T16:28:53;17.00;96.40
35491;DHT22;21605;52.068;20.806;2022-09-09T16:31:22;16.90;96.20
35491;DHT22;21605;52.068;20.806;2022-09-09T16:33:49;17.00;96.90
35491;DHT22;21605;52.068;20.806;2022-09-09T16:36:30;16.90;96.60
35491;DHT22;21605;52.068;20.806;2022-09-09T16:39:01;16.90;96.20
35491;DHT22;21605;52.068;20.806;2022-09-09T16:41:28;16.90;97.00
35491;DHT22;21605;52.068;20.806;2022-09-09T16:43:58;16.90;96.60
35491;DHT22;21605;52.068;20.806;2022-09-09T16:46:27;16.80;96.40
35491;DHT22;21605;52.068;20.806;2022-09-09T16:48:53;16.80;96.40
35491;DHT22;21605;52.068;20.806;2022-09-09T16:51:25;16.80;96.60
35491;DHT22;21605;52.068;20.806;2022-09-09T16:53:53;16.80;96.80
35491;DHT22;21605;52.068;20.806;2022-09-09T16:56:25;16.80;96.30
35491;DHT22;21605;52.068;20.806;2022-09-09T16:58:53;16.80;97.10
35491;DHT22;21605;52.068;20.806;2022-09-09T17:01:21;16.70;96.70
35491;DHT22;21605;52.068;20.806;2022-09-09T17:03:46;16.70;96.90
35491;DHT22;21605;52.068;20.806;2022-09-09T17:06:13;16.70;96.90
35491;DHT22;21605;52.068;20.806;2022-09-09T17:08:58;16.70;97.00
35491;DHT22;21605;52.068;20.806;2022-09-09T17:11:25;16.70;96.60
35491;DHT22;21605;52.068;20.806;2022-09-09T17:13:52;16.60;96.90
35491;DHT22;21605;52.068;20.806;2022-09-09T17:16:24;16.60;97.00
35491;DHT22;21605;52.068;20.806;2022-09-09T17:18:52;16.60;96.90
35491;DHT22;21605;52.068;20.806;2022-09-09T17:21:22;16.60;97.30
35491;DHT22;21605;52.068;20.806;2022-09-09T17:23:49;16.60;96.90
35491;DHT22;21605;52.068;20.806;2022-09-09T17:26:25;16.50;96.30
35491;DHT22;21605;52.068;20.806;2022-09-09T17:28:52;16.50;96.70
35491;DHT22;21605;52.068;20.806;2022-09-09T17:31:25;16.50;96.80
35491;DHT22;21605;52.068;20.806;2022-09-09T17:33:51;16.40;96.50
35491;DHT22;21605;52.068;20.806;2022-09-09T17:36:27;16.40;96.70
35491;DHT22;21605;52.068;20.806;2022-09-09T17:38:53;16.40;97.40
35491;DHT22;21605;52.068;20.806;2022-09-09T17:41:28;16.40;97.00
35491;DHT22;21605;52.068;20.806;2022-09-09T17:43:54;16.40;96.00
35491;DHT22;21605;52.068;20.806;2022-09-09T17:46:28;16.40;96.50
35491;DHT22;21605;52.068;20.806;2022-09-09T17:49:00;16.40;97.20
35491;DHT22;21605;52.068;20.806;2022-09-09T17:51:27;16.30;97.00
35491;DHT22;21605;52.068;20.806;2022-09-09T17:53:56;16.30;97.30
35491;DHT22;21605;52.068;20.806;2022-09-09T17:56:26;16.30;97.20
35491;DHT22;21605;52.068;20.806;2022-09-09T17:58:53;16.30;96.80
35491;DHT22;21605;52.068;20.806;2022-09-09T18:01:30;16.30;97.10
35491;DHT22;21605;52.068;20.806;2022-09-09T18:03:58;16.30;97.30
35491;DHT22;21605;52.068;20.806;2022-09-09T18:06:29;16.30;97.50